Time,TemperatureF,DewpointF,PressureIn,WindDirection,WindDirectionDegrees,WindSpeedMPH,WindSpeedGustMPH,Humidity,HourlyPrecipIn,Conditions,Clouds,dailyrainin,SoftwareType,DateUTC
2013-07-18 00:00:00,74.0,58.0,30.15,ESE,122,7.0,17.0,58,0.01,,,-99.99,,2013-07-18 06:00:00,
2013-07-18 00:32:00,74.0,58.0,30.15,ESE,122,7.0,17.0,58,0.01,,,-99.99,,2013-07-18 06:32:00,
2013-07-18 00:43:00,74.0,58.0,30.15,ESE,122,7.0,17.0,58,0.01,,,-99.99,,2013-07-18 06:43:00,
2013-07-18 00:52:00,74.0,58.0,30.15,ESE,122,7.0,17.0,58,0.01,,,-99.99,,2013-07-18 06:52:00,
2013-07-18 05:00:00,72.0,59.0,30.16,SW,226,2.0,5.0,62,0.00,,,-99.99,,2013-07-18 11:00:00,
2013-07-18 05:43:00,72.0,59.0,30.16,SW,226,2.0,5.0,62,0.00,,,-99.99,,2013-07-18 11:43:00,
2013-07-18 05:52:00,72.0,59.0,30.16,SW,226,2.0,5.0,62,0.00,,,-99.99,,2013-07-18 11:52:00,
2013-07-18 06:00:00,71.0,60.0,30.15,SW,236,1.0,4.0,68,0.00,,,-99.99,,2013-07-18 12:00:00,
2013-07-18 06:42:00,71.0,60.0,30.15,SW,236,1.0,4.0,68,0.00,,,-99.99,,2013-07-18 12:42:00,
2013-07-18 06:52:00,71.0,60.0,30.15,SW,236,1.0,4.0,68,0.00,,,-99.99,,2013-07-18 12:52:00,
2013-07-18 07:00:00,70.0,60.0,30.17,South,170,2.0,4.0,70,0.00,,,-99.99,,2013-07-18 13:00:00,
2013-07-18 07:43:00,70.0,60.0,30.17,South,170,2.0,4.0,70,0.00,,,-99.99,,2013-07-18 13:43:00,
2013-07-18 07:53:00,70.0,60.0,30.17,South,170,2.0,4.0,70,0.00,,,-99.99,,2013-07-18 13:53:00,
2013-07-18 08:00:00,74.0,61.0,30.18,WNW,297,2.0,6.0,63,0.00,,,-99.99,,2013-07-18 14:00:00,
2013-07-18 08:43:00,74.0,61.0,30.18,WNW,297,2.0,6.0,63,0.00,,,-99.99,,2013-07-18 14:43:00,
2013-07-18 08:53:00,74.0,61.0,30.18,WNW,297,2.0,6.0,63,0.00,,,-99.99,,2013-07-18 14:53:00,
2013-07-18 09:00:00,75.0,62.0,30.20,NNW,342,2.0,5.0,64,0.00,,,-99.99,,2013-07-18 15:00:00,
2013-07-18 09:43:00,75.0,62.0,30.20,NNW,342,2.0,5.0,64,0.00,,,-99.99,,2013-07-18 15:43:00,
2013-07-18 09:53:00,75.0,62.0,30.20,NNW,342,2.0,5.0,64,0.00,,,-99.99,,2013-07-18 15:53:00,
2013-07-18 10:00:00,76.0,61.0,30.20,East,88,1.0,4.0,61,0.00,,,-99.99,,2013-07-18 16:00:00,
2013-07-18 10:32:00,76.0,61.0,30.20,East,88,1.0,4.0,61,0.00,,,-99.99,,2013-07-18 16:32:00,
2013-07-18 10:42:00,76.0,61.0,30.20,East,88,1.0,4.0,61,0.00,,,-99.99,,2013-07-18 16:42:00,
2013-07-18 10:52:00,76.0,61.0,30.20,East,88,1.0,4.0,61,0.00,,,-99.99,,2013-07-18 16:52:00,
2013-07-18 11:00:00,78.0,61.0,30.19,NNW,333,1.0,4.0,54,0.00,,,-99.99,,2013-07-18 17:00:00,
2013-07-18 11:33:00,78.0,61.0,30.19,NNW,333,1.0,4.0,54,0.00,,,-99.99,,2013-07-18 17:33:00,
2013-07-18 11:43:00,78.0,61.0,30.19,NNW,333,1.0,4.0,54,0.00,,,-99.99,,2013-07-18 17:43:00,
2013-07-18 11:52:00,78.0,61.0,30.19,NNW,333,1.0,4.0,54,0.00,,,-99.99,,2013-07-18 17:52:00,
2013-07-18 12:00:00,82.0,59.0,30.18,West,259,2.0,7.0,45,0.00,,,-99.99,,2013-07-18 18:00:00,
2013-07-18 12:43:00,82.0,59.0,30.18,West,259,2.0,7.0,45,0.00,,,-99.99,,2013-07-18 18:43:00,
2013-07-18 12:52:00,82.0,59.0,30.18,West,259,2.0,7.0,45,0.00,,,-99.99,,2013-07-18 18:52:00,
2013-07-18 13:00:00,85.0,57.0,30.16,WSW,250,5.0,14.0,38,0.00,,,-99.99,,2013-07-18 19:00:00,
2013-07-18 13:43:00,85.0,57.0,30.16,WSW,250,5.0,14.0,38,0.00,,,-99.99,,2013-07-18 19:43:00,
2013-07-18 13:53:00,85.0,57.0,30.16,WSW,250,5.0,14.0,38,0.00,,,-99.99,,2013-07-18 19:53:00,
2013-07-18 15:00:00,88.0,56.0,30.09,WSW,241,8.0,13.0,33,0.00,,,-99.99,,2013-07-18 21:00:00,
2013-07-18 15:32:00,88.0,56.0,30.09,WSW,241,8.0,13.0,33,0.00,,,-99.99,,2013-07-18 21:32:00,
2013-07-18 15:43:00,88.0,56.0,30.09,WSW,241,8.0,13.0,33,0.00,,,-99.99,,2013-07-18 21:43:00,
2013-07-18 15:52:00,88.0,56.0,30.09,WSW,241,8.0,13.0,33,0.00,,,-99.99,,2013-07-18 21:52:00,
2013-07-18 16:00:00,90.0,55.0,30.07,West,263,6.0,12.0,30,0.00,,,-99.99,,2013-07-18 22:00:00,
2013-07-18 16:32:00,90.0,55.0,30.07,West,263,6.0,12.0,30,0.00,,,-99.99,,2013-07-18 22:32:00,
2013-07-18 16:43:00,90.0,55.0,30.07,West,263,6.0,12.0,30,0.00,,,-99.99,,2013-07-18 22:43:00,
2013-07-18 16:53:00,90.0,55.0,30.07,West,263,6.0,12.0,30,0.00,,,-99.99,,2013-07-18 22:53:00,
2013-07-18 17:00:00,91.0,55.0,30.04,West,281,4.0,10.0,29,0.00,,,-99.99,,2013-07-18 23:00:00,
2013-07-18 17:32:00,91.0,55.0,30.04,West,281,4.0,10.0,29,0.00,,,-99.99,,2013-07-18 23:32:00,
2013-07-18 17:42:00,91.0,55.0,30.04,West,281,4.0,10.0,29,0.00,,,-99.99,,2013-07-18 23:42:00,
2013-07-18 17:52:00,91.0,55.0,30.04,West,281,4.0,10.0,29,0.00,,,-99.99,,2013-07-18 23:52:00,
2013-07-18 18:00:00,93.0,55.0,30.02,West,266,4.0,9.0,27,0.00,,,-99.99,,2013-07-19 00:00:00,
2013-07-18 18:43:00,93.0,55.0,30.02,West,266,4.0,9.0,27,0.00,,,-99.99,,2013-07-19 00:43:00,
2013-07-18 18:52:00,93.0,55.0,30.02,West,266,4.0,9.0,27,0.00,,,-99.99,,2013-07-19 00:52:00,
2013-07-18 19:00:00,94.0,54.0,30.00,West,280,5.0,10.0,26,0.00,,,-99.99,,2013-07-19 01:00:00,
2013-07-18 19:42:00,94.0,54.0,30.00,West,280,5.0,10.0,26,0.00,,,-99.99,,2013-07-19 01:42:00,
2013-07-18 19:52:00,94.0,54.0,30.00,West,280,5.0,10.0,26,0.00,,,-99.99,,2013-07-19 01:52:00,
2013-07-18 20:00:00,92.0,53.0,29.99,WNW,301,6.0,16.0,26,0.00,,,-99.99,,2013-07-19 02:00:00,
2013-07-18 20:43:00,92.0,53.0,29.99,WNW,301,6.0,16.0,26,0.00,,,-99.99,,2013-07-19 02:43:00,
2013-07-18 20:52:00,92.0,53.0,29.99,WNW,301,6.0,16.0,26,0.00,,,-99.99,,2013-07-19 02:52:00,
2013-07-18 22:00:00,75.0,59.0,30.10,SSE,164,14.0,23.0,57,0.00,,,-99.99,,2013-07-19 04:00:00,
2013-07-18 22:33:00,75.0,59.0,30.10,SSE,164,14.0,23.0,57,0.00,,,-99.99,,2013-07-19 04:33:00,
2013-07-18 22:44:00,75.0,59.0,30.10,SSE,164,14.0,23.0,57,0.00,,,-99.99,,2013-07-19 04:44:00,
2013-07-18 22:52:00,75.0,59.0,30.10,SSE,164,14.0,23.0,57,0.00,,,-99.99,,2013-07-19 04:52:00,
2013-07-18 23:00:00,75.0,58.0,30.11,SE,129,6.0,16.0,56,0.00,,,-99.99,,2013-07-19 05:00:00,
2013-07-18 23:32:00,75.0,58.0,30.11,SE,129,6.0,16.0,56,0.00,,,-99.99,,2013-07-19 05:32:00,
2013-07-18 23:43:00,75.0,58.0,30.11,SE,129,6.0,16.0,56,0.00,,,-99.99,,2013-07-19 05:43:00,
2013-07-18 23:53:00,75.0,58.0,30.11,SE,129,6.0,16.0,56,0.00,,,-99.99,,2013-07-19 05:53:00,